Terminal Aerodrome Forecast
Issued by NWS Topeka, KS

Home | Current Version | Previous Version | Graphics & Text | Print | Product List | Glossary On
Versions: 1 2 3 4 5 6 7 8 9 10 11 12 13 14 15 16 17 18 19 20 21 22 23 24 25 26 27 28 29
000
FTUS43 KTOP 181121
TAFTOP
TAF
KTOP 181121Z 1812/1912 17009KT P6SM SCT250 WS009/20045KT
     FM181430 17015G25KT P6SM SCT250 WS010/19050KT
     FM181600 18021G35KT P6SM SCT250
     FM182300 18015G22KT P6SM BKN015
     FM190200 18015G25KT P6SM BKN008 WS020/20050KT
     FM190600 18015G23KT 6SM -DZ OVC005 WS020/21055KT=

USA.gov is the U.S. government's official web portal to all federal, state and local government web resources and services.